Time;durP1;ratioP1;P1;durP2;ratioP2;P2;SDS_P1;SDS_P2;PMS_P1;PMS_P2;Temp;Humidity;BMP_temperature;BMP_pressure;BME280_temperature;BME280_humidity;BME280_pressure;Samples;Min_cycle;Max_cycle;Signal;HPM_P1;HPM_P2
2023/01/29 00:01:44;;;;;;;;;42.00;35.00;;;;;3.11;56.57;102678.53;5073416;28;45404;-76
2023/01/29 00:04:10;;;;;;;;;49.75;38.25;;;;;3.18;57.28;102691.06;5074272;28;45528;-74
2023/01/29 00:06:35;;;;;;;;;51.25;36.50;;;;;3.19;57.21;102691.16;5073416;28;45386;-75
2023/01/29 00:09:01;;;;;;;;;47.50;37.25;;;;;3.30;56.40;102688.34;5072153;27;46199;-70
2023/01/29 00:11:26;;;;;;;;;51.00;40.50;;;;;3.27;56.92;102673.50;5074127;28;45439;-72
2023/01/29 00:13:53;;;;;;;;;57.25;41.75;;;;;3.31;56.54;102680.66;5072655;28;45760;-74
2023/01/29 00:16:18;;;;;;;;;45.00;33.50;;;;;3.22;56.55;102671.44;5071921;28;45406;-70
2023/01/29 00:18:44;;;;;;;;;51.00;40.25;;;;;3.25;56.98;102674.22;5072243;28;45603;-71
2023/01/29 00:21:12;;;;;;;;;56.00;41.00;;;;;3.25;56.81;102676.78;5070922;28;45343;-74
2023/01/29 00:23:37;;;;;;;;;56.00;39.75;;;;;3.09;56.69;102668.06;5046520;28;45485;-76
2023/01/29 00:26:03;;;;;;;;;40.75;34.50;;;;;3.15;56.77;102677.91;5088280;27;45479;-77
2023/01/29 00:28:29;;;;;;;;;42.25;32.00;;;;;3.19;57.50;102672.13;5071347;28;45362;-74
2023/01/29 00:30:55;;;;;;;;;58.50;39.75;;;;;3.17;56.99;102676.31;5047821;28;45413;-75
2023/01/29 00:33:21;;;;;;;;;48.25;37.50;;;;;3.18;57.53;102671.25;5053515;28;45957;-78
2023/01/29 00:35:46;;;;;;;;;50.25;36.00;;;;;3.24;57.11;102667.25;5054757;28;45430;-76
2023/01/29 00:38:12;;;;;;;;;49.75;39.00;;;;;3.22;56.92;102661.97;5070970;28;46309;-76
2023/01/29 00:46:07;;;;;;;;;49.25;35.50;;;;;3.16;57.14;102659.00;5069256;28;45343;-74
2023/01/29 00:48:33;;;;;;;;;45.75;36.25;;;;;3.11;57.52;102637.13;5074066;28;46000;-76
2023/01/29 00:50:59;;;;;;;;;50.75;38.25;;;;;3.15;57.13;102650.31;5047972;28;45419;-74
2023/01/29 00:53:25;;;;;;;;;48.50;36.75;;;;;3.24;56.93;102668.13;5070692;28;45457;-72
2023/01/29 00:55:50;;;;;;;;;50.00;37.50;;;;;3.20;57.17;102666.13;5072117;28;45531;-73
2023/01/29 00:58:21;;;;;;;;;58.00;41.00;;;;;3.22;57.59;102661.06;5073350;28;46829;-73
2023/01/29 01:00:48;;;;;;;;;58.33;43.67;;;;;3.15;57.05;102663.25;5091336;27;45713;-74
2023/01/29 01:03:14;;;;;;;;;55.50;42.75;;;;;3.22;57.66;102654.19;5074049;27;45459;-74
2023/01/29 01:05:41;;;;;;;;;52.50;39.50;;;;;3.19;57.14;102660.06;5073878;28;45494;-74
2023/01/29 01:10:19;;;;;;;;;54.00;38.00;;;;;3.19;57.76;102657.50;5055694;28;45753;-76
2023/01/29 01:11:05;;;;;;;;;50.25;38.25;;;;;3.15;57.71;102657.19;5073570;28;45423;-75
2023/01/29 01:13:33;;;;;;;;;54.75;41.25;;;;;3.14;57.42;102652.84;5055178;28;45440;-75
2023/01/29 01:15:59;;;;;;;;;49.50;37.25;;;;;3.18;57.57;102653.13;5068943;28;45587;-77
2023/01/29 01:18:27;;;;;;;;;52.75;38.00;;;;;3.21;57.12;102655.00;5047435;28;47586;-75
2023/01/29 01:20:57;;;;;;;;;50.50;38.25;;;;;3.16;57.34;102640.88;5072532;27;45370;-75
2023/01/29 01:23:23;;;;;;;;;54.75;38.00;;;;;3.22;57.87;102645.53;5058961;28;45370;-73
2023/01/29 01:25:48;;;;;;;;;49.75;38.00;;;;;3.18;57.18;102628.94;5067891;28;45386;-73
2023/01/29 01:28:14;;;;;;;;;52.00;38.00;;;;;3.37;57.37;102655.16;5066719;27;45565;-76
2023/01/29 01:30:40;;;;;;;;;47.50;33.50;;;;;3.40;57.48;102646.69;5055080;27;45450;-75
2023/01/29 01:33:05;;;;;;;;;48.25;36.75;;;;;3.49;57.59;102659.28;5081807;28;45556;-76
2023/01/29 01:35:31;;;;;;;;;47.50;35.25;;;;;3.52;57.16;102644.84;5082445;28;45278;-74
2023/01/29 01:37:57;;;;;;;;;43.25;34.50;;;;;3.53;56.94;102638.84;5070619;28;46789;-76
2023/01/29 01:40:24;;;;;;;;;50.75;39.75;;;;;3.49;56.72;102661.88;5087881;27;45780;-74
2023/01/29 01:42:52;;;;;;;;;53.50;42.25;;;;;3.43;56.79;102653.75;5077584;28;45357;-74
2023/01/29 01:45:28;;;;;;;;;48.50;37.25;;;;;3.44;57.18;102664.22;5077233;27;45528;-75
2023/01/29 01:48:00;;;;;;;;;45.00;35.00;;;;;3.48;56.88;102665.28;5066700;28;46980;-74
2023/01/29 01:50:37;;;;;;;;;50.50;37.00;;;;;3.44;57.71;102664.22;5081434;27;45297;-72
2023/01/29 01:53:10;;;;;;;;;56.00;42.75;;;;;3.42;57.69;102664.88;5059842;28;45444;-74
2023/01/29 01:55:49;;;;;;;;;54.00;40.75;;;;;3.43;57.25;102662.41;5077352;28;45313;-69
2023/01/29 10:16:35;;;;;;;;;44.00;36.00;;;;;24.60;22.76;102649.13;5066800;27;45801;-71
2023/01/29 10:19:18;;;;;;;;;43.67;34.00;;;;;24.76;22.55;102650.47;5050140;28;45432;-70
2023/01/29 10:22:11;;;;;;;;;33.33;31.33;;;;;25.73;21.68;102645.00;5050628;28;45393;-71
2023/01/29 10:25:01;;;;;;;;;47.00;34.33;;;;;26.52;19.40;102632.56;5054595;28;45553;-72
2023/01/29 10:27:33;;;;;;;;;46.67;36.67;;;;;25.35;20.89;102633.63;5054500;28;46445;-70
2023/01/29 10:30:02;;;;;;;;;46.67;37.33;;;;;25.15;21.26;102636.00;5054404;28;45593;-68
2023/01/29 10:32:29;;;;;;;;;40.33;32.00;;;;;25.42;21.21;102633.47;5051335;28;45271;-73
2023/01/29 10:35:40;;;;;;;;;43.33;33.67;;;;;25.98;20.42;102631.72;5051968;28;45567;-69
2023/01/29 10:38:25;;;;;;;;;42.33;31.33;;;;;27.14;19.84;102609.72;5053305;28;46456;-71
2023/01/29 10:40:50;;;;;;;;;41.67;34.33;;;;;28.37;19.08;102617.38;5039718;28;45324;-68
2023/01/29 10:43:54;;;;;;;;;40.67;34.00;;;;;29.06;18.28;102595.41;5049252;28;45947;-70
2023/01/29 10:46:38;;;;;;;;;45.33;36.00;;;;;29.37;17.88;102584.94;5049626;28;45524;-71
2023/01/29 10:49:45;;;;;;;;;48.67;38.00;;;;;28.12;18.18;102578.91;5048763;28;48015;-70
2023/01/29 10:52:29;;;;;;;;;49.00;36.33;;;;;26.84;19.31;102585.75;5048019;28;45769;-70
2023/01/29 10:55:12;;;;;;;;;44.00;36.00;;;;;27.56;19.30;102589.28;5049784;28;45347;-70
2023/01/29 10:57:55;;;;;;;;;46.33;37.00;;;;;27.87;18.64;102589.81;5065291;28;45580;-71
2023/01/29 11:00:25;;;;;;;;;49.67;38.33;;;;;27.73;18.77;102585.91;5051967;28;46132;-70
2023/01/29 11:02:51;;;;;;;;;48.33;39.33;;;;;27.15;18.98;102583.72;5053801;28;45446;-70
2023/01/29 11:05:23;;;;;;;;;40.67;36.00;;;;;26.90;19.11;102581.94;5054067;28;45495;-70
2023/01/29 11:07:56;;;;;;;;;45.67;37.33;;;;;26.81;18.95;102560.78;5049730;28;45612;-69
2023/01/29 11:10:24;;;;;;;;;47.33;37.33;;;;;27.66;18.75;102577.22;5049642;28;46064;-71
2023/01/29 11:12:51;;;;;;;;;44.33;35.67;;;;;28.34;18.33;102567.19;5048897;28;45558;-69
2023/01/29 11:15:22;;;;;;;;;46.00;37.00;;;;;28.53;18.38;102567.28;5051258;28;45391;-69
2023/01/29 11:18:05;;;;;;;;;48.00;38.00;;;;;28.97;16.99;102558.94;5053755;28;45532;-70
2023/01/29 11:20:32;;;;;;;;;49.00;38.00;;;;;28.56;16.73;102544.69;5049517;28;46221;-72
2023/01/29 11:22:58;;;;;;;;;47.67;38.00;;;;;28.19;17.85;102554.38;5090824;27;45770;-72
2023/01/29 11:25:24;;;;;;;;;44.33;37.67;;;;;28.57;17.42;102559.91;5056240;28;45401;-71
2023/01/29 11:27:56;;;;;;;;;45.33;36.33;;;;;27.96;17.19;102555.38;5035963;28;45491;-70
2023/01/29 11:30:30;;;;;;;;;48.33;38.00;;;;;27.25;18.40;102552.84;5035150;28;45565;-70
2023/01/29 11:33:06;;;;;;;;;48.00;36.67;;;;;28.06;18.03;102562.97;5039470;28;45446;-68
2023/01/29 11:35:32;;;;;;;;;24.33;16.33;;;;;28.47;17.21;102554.06;5038314;28;45474;-70
2023/01/29 11:38:22;;;;;;;;;51.67;42.67;;;;;27.01;17.47;102546.59;5039674;28;45574;-69
2023/01/29 11:40:48;;;;;;;;;50.33;39.00;;;;;26.17;18.36;102550.50;5023548;28;45423;-70
2023/01/29 11:43:26;;;;;;;;;47.00;39.33;;;;;25.76;18.93;102545.59;5034619;28;45547;-69
2023/01/29 11:46:02;;;;;;;;;55.67;43.33;;;;;24.47;20.43;102536.09;5034230;28;45967;-68
2023/01/29 11:48:50;;;;;;;;;46.33;37.67;;;;;23.52;21.30;102551.84;5038203;28;45416;-68
2023/01/29 11:51:42;;;;;;;;;52.00;42.33;;;;;21.66;22.17;102536.69;5037645;28;47860;-67
2023/01/29 11:54:18;;;;;;;;;50.25;41.50;;;;;18.77;25.15;102539.38;5034592;28;45476;-70
2023/01/29 11:56:46;;;;;;;;;48.00;37.00;;;;;16.64;27.65;102539.94;5037567;28;45442;-70
2023/01/29 11:59:35;;;;;;;;;51.75;39.00;;;;;15.34;29.84;102554.66;5039848;28;45493;-67
2023/01/29 12:02:36;;;;;;;;;48.00;37.75;;;;;14.51;30.85;102556.19;5034535;28;46218;-68
2023/01/29 12:05:27;;;;;;;;;56.00;43.25;;;;;13.43;32.46;102549.09;5034300;28;45398;-68
2023/01/29 12:07:56;;;;;;;;;46.25;31.50;;;;;12.90;33.98;102562.00;5032004;28;45887;-70
2023/01/29 12:10:39;;;;;;;;;30.50;23.75;;;;;12.51;33.68;102555.91;5067565;28;45507;-68
2023/01/29 12:13:24;;;;;;;;;24.50;19.75;;;;;12.07;34.38;102555.72;5068523;28;47502;-68
2023/01/29 12:16:10;;;;;;;;;21.50;14.25;;;;;11.55;35.64;102561.31;5038990;28;45329;-68
2023/01/29 12:18:40;;;;;;;;;20.50;16.50;;;;;11.29;35.95;102548.38;5035013;28;45804;-67
2023/01/29 12:21:37;;;;;;;;;21.50;18.00;;;;;11.10;36.76;102553.94;5034484;28;45727;-68
2023/01/29 12:24:12;;;;;;;;;22.50;17.50;;;;;10.83;37.60;102552.28;5025738;28;46393;-68
2023/01/29 12:26:46;;;;;;;;;25.25;20.00;;;;;10.65;38.23;102559.59;5034233;28;45655;-68
2023/01/29 12:29:15;;;;;;;;;19.25;15.00;;;;;10.46;38.08;102551.16;5035013;28;45541;-69
2023/01/29 12:31:49;;;;;;;;;21.75;18.00;;;;;10.36;38.67;102556.94;5035642;28;45426;-70
2023/01/29 12:34:18;;;;;;;;;22.25;20.00;;;;;10.26;38.59;102557.47;5034823;28;45672;-70
2023/01/29 12:37:08;;;;;;;;;18.25;15.25;;;;;10.15;38.87;102544.88;5034162;28;45488;-67
2023/01/29 12:39:35;;;;;;;;;28.50;21.25;;;;;10.03;38.99;102534.03;5033133;28;45780;-69
2023/01/29 12:42:15;;;;;;;;;19.50;14.25;;;;;9.91;39.16;102526.66;5038789;28;45455;-69
2023/01/29 12:44:58;;;;;;;;;16.75;14.50;;;;;9.76;39.25;102503.47;5037170;28;45630;-69
2023/01/29 12:47:54;;;;;;;;;18.25;15.00;;;;;9.83;39.13;102516.78;5038736;28;45437;-67
2023/01/29 12:50:26;;;;;;;;;22.50;18.50;;;;;9.69;39.52;102498.88;5021493;28;45536;-69
2023/01/29 12:53:00;;;;;;;;;17.00;15.50;;;;;9.81;39.63;102526.31;5029838;28;45616;-71
2023/01/29 12:55:38;;;;;;;;;17.25;15.50;;;;;9.59;39.48;102496.78;5031969;28;46647;-68
2023/01/29 12:58:11;;;;;;;;;14.75;14.50;;;;;9.65;39.69;102512.69;5063352;28;45511;-71
2023/01/29 13:00:45;;;;;;;;;13.25;12.00;;;;;9.75;39.34;102506.94;5031757;28;45418;-70
2023/01/29 13:03:22;;;;;;;;;12.75;9.50;;;;;10.07;39.22;102508.84;5034812;28;45647;-69
2023/01/29 13:06:09;;;;;;;;;15.75;12.75;;;;;10.22;39.00;102503.19;5030722;28;46926;-72
2023/01/29 13:08:50;;;;;;;;;19.75;16.25;;;;;10.14;39.18;102500.34;5031300;28;45629;-70
2023/01/29 13:11:22;;;;;;;;;21.75;17.50;;;;;10.01;39.43;102495.53;5029998;28;45344;-68
2023/01/29 13:14:00;;;;;;;;;18.00;15.00;;;;;9.88;39.35;102495.16;5062983;28;45814;-72
2023/01/29 13:16:32;;;;;;;;;13.75;11.75;;;;;9.68;39.35;102476.19;5030957;28;46236;-68
2023/01/29 13:19:30;;;;;;;;;15.00;14.00;;;;;9.62;39.69;102486.44;5034779;28;45672;-69
2023/01/29 13:21:59;;;;;;;;;20.75;17.50;;;;;9.15;40.15;102462.13;5035618;28;45394;-70
2023/01/29 13:24:38;;;;;;;;;16.00;14.50;;;;;8.98;40.59;102438.00;5029551;28;45608;-69
2023/01/29 13:27:04;;;;;;;;;17.75;15.75;;;;;9.15;40.92;102474.31;5023671;28;45525;-71
2023/01/29 13:29:31;;;;;;;;;17.25;15.00;;;;;9.27;40.79;102485.22;5032038;28;45470;-71
2023/01/29 13:32:03;;;;;;;;;20.00;17.00;;;;;9.30;40.28;102470.53;5034830;28;45486;-72
2023/01/29 13:34:42;;;;;;;;;15.50;13.00;;;;;9.26;40.31;102459.91;5036652;28;45367;-72
2023/01/29 13:37:14;;;;;;;;;13.50;13.00;;;;;9.22;40.51;102452.78;5031884;28;45544;-71
2023/01/29 13:39:49;;;;;;;;;12.75;11.25;;;;;9.26;40.37;102446.84;5031011;28;45518;-71
2023/01/29 13:42:37;;;;;;;;;23.00;16.00;;;;;9.09;40.47;102435.78;5036264;28;45570;-69
2023/01/29 13:45:07;;;;;;;;;16.75;13.50;;;;;8.97;41.28;102440.56;5035807;28;45605;-70
2023/01/29 13:47:37;;;;;;;;;13.75;11.75;;;;;8.96;41.32;102447.50;5028434;28;45551;-71
2023/01/29 13:50:37;;;;;;;;;14.25;12.00;;;;;8.99;41.54;102442.38;5030259;28;45544;-71
2023/01/29 13:53:05;;;;;;;;;16.50;13.00;;;;;9.07;41.41;102429.63;5025931;28;45373;-72
2023/01/29 13:55:34;;;;;;;;;12.50;12.25;;;;;9.08;41.18;102429.66;5038062;28;45379;-70
2023/01/29 13:58:01;;;;;;;;;12.75;11.50;;;;;9.10;41.39;102425.38;5034174;28;46566;-72
2023/01/29 14:00:32;;;;;;;;;12.00;12.00;;;;;9.13;41.41;102422.88;5032285;28;45481;-70
2023/01/29 14:03:07;;;;;;;;;12.25;11.25;;;;;9.21;41.30;102417.91;5033039;28;45447;-71
2023/01/29 14:05:35;;;;;;;;;14.50;13.25;;;;;9.29;41.83;102408.59;5032215;28;45492;-71
2023/01/29 14:08:13;;;;;;;;;16.25;16.25;;;;;9.28;41.41;102409.44;5031564;28;46419;-70
2023/01/29 14:10:41;;;;;;;;;16.75;13.00;;;;;9.26;41.17;102405.00;5036353;28;45390;-72
2023/01/29 14:13:18;;;;;;;;;15.50;15.50;;;;;9.09;41.63;102399.19;5037344;28;45624;-68
2023/01/29 14:15:47;;;;;;;;;16.25;15.50;;;;;8.90;42.02;102393.31;5033523;28;45435;-70
2023/01/29 14:18:21;;;;;;;;;24.25;17.50;;;;;8.73;41.99;102383.09;5035258;28;45564;-71
2023/01/29 14:20:46;;;;;;;;;22.50;18.75;;;;;8.69;42.35;102396.06;5026974;28;45867;-70
2023/01/29 14:23:42;;;;;;;;;21.00;18.50;;;;;8.49;42.65;102390.09;5031139;28;45470;-70
2023/01/29 14:26:31;;;;;;;;;24.25;20.25;;;;;8.14;43.38;102391.34;5033777;28;45382;-72
2023/01/29 14:29:11;;;;;;;;;24.25;20.00;;;;;8.08;43.14;102389.38;5040609;28;46887;-70
2023/01/29 14:31:54;;;;;;;;;21.00;17.50;;;;;7.88;43.46;102389.41;5031839;28;46442;-70
2023/01/29 14:34:28;;;;;;;;;19.50;17.00;;;;;7.82;44.27;102384.88;5032477;28;45367;-71
2023/01/29 14:37:01;;;;;;;;;17.25;17.00;;;;;7.91;43.90;102385.22;5027758;28;45569;-70
2023/01/29 14:39:50;;;;;;;;;15.50;12.00;;;;;7.97;44.47;102380.28;5051322;28;47100;-69
2023/01/29 14:42:28;;;;;;;;;15.75;15.25;;;;;7.62;44.28;102329.31;5032899;28;45497;-72
2023/01/29 14:44:53;;;;;;;;;14.25;14.00;;;;;8.01;44.12;102376.94;5051485;28;45359;-72
2023/01/29 14:47:34;;;;;;;;;15.25;12.75;;;;;8.04;44.31;102374.47;5032575;28;45500;-72
2023/01/29 14:50:02;;;;;;;;;17.50;15.00;;;;;8.03;44.53;102367.44;5033056;28;46371;-72
2023/01/29 14:52:37;;;;;;;;;12.50;12.50;;;;;8.11;44.36;102374.66;5032513;28;45976;-70
2023/01/29 14:55:07;;;;;;;;;14.25;13.75;;;;;8.15;44.18;102368.75;5034123;28;46784;-71
2023/01/29 14:57:35;;;;;;;;;16.25;15.00;;;;;8.19;44.25;102374.16;5034332;28;45497;-72
2023/01/29 15:00:05;;;;;;;;;16.25;14.50;;;;;8.02;44.27;102355.25;5032802;28;45652;-72
2023/01/29 15:02:40;;;;;;;;;18.00;13.25;;;;;7.94;44.60;102364.47;5033444;28;45576;-68
2023/01/29 15:05:11;;;;;;;;;16.50;15.25;;;;;7.78;44.68;102360.41;5039691;28;45397;-71
2023/01/29 15:08:29;;;;;;;;;15.00;12.75;;;;;7.78;44.59;102363.00;5036479;28;45533;-72
2023/01/29 15:14:12;;;;;;;;;14.25;13.75;;;;;7.61;45.15;102364.03;5036342;28;45788;-70
2023/01/29 15:17:04;;;;;;;;;15.00;14.00;;;;;7.52;45.69;102366.25;5036388;28;45335;-72
2023/01/29 15:19:56;;;;;;;;;22.25;18.00;;;;;7.39;45.65;102365.78;5036646;28;45742;-71
2023/01/29 15:22:28;;;;;;;;;20.25;17.75;;;;;7.30;45.94;102354.06;5037092;28;46253;-69
2023/01/29 15:25:14;;;;;;;;;22.25;17.75;;;;;7.29;46.26;102347.97;5040338;28;45433;-69
2023/01/29 15:27:44;;;;;;;;;21.50;18.50;;;;;7.20;46.24;102347.59;5037084;28;45441;-70
2023/01/29 15:30:15;;;;;;;;;14.75;14.75;;;;;7.20;46.60;102371.94;5035662;28;45700;-69
2023/01/29 15:32:41;;;;;;;;;17.50;16.00;;;;;7.20;47.56;102373.66;5055256;28;47643;-70
2023/01/29 15:35:14;;;;;;;;;20.25;16.25;;;;;7.26;46.92;102375.63;5039854;28;45524;-71
2023/01/29 15:37:40;;;;;;;;;17.50;17.00;;;;;7.17;47.11;102374.41;5040005;28;45506;-70
2023/01/29 15:40:13;;;;;;;;;17.50;15.25;;;;;7.24;46.95;102372.97;5027054;28;45351;-71
2023/01/29 15:42:47;;;;;;;;;14.75;13.50;;;;;7.25;47.12;102374.72;5026228;28;45736;-71
2023/01/29 15:45:28;;;;;;;;;18.00;17.00;;;;;7.27;46.99;102380.03;5037254;28;45416;-71
2023/01/29 15:47:58;;;;;;;;;14.25;13.25;;;;;7.20;47.34;102387.56;5033945;28;45426;-71
2023/01/29 15:50:24;;;;;;;;;17.25;15.75;;;;;7.16;47.03;102370.00;5035504;28;45872;-70
2023/01/29 15:52:54;;;;;;;;;17.50;16.00;;;;;7.21;47.08;102370.22;5035524;28;46036;-69
2023/01/29 15:55:22;;;;;;;;;14.50;13.00;;;;;7.30;47.55;102390.56;5038327;28;45560;-69
2023/01/29 15:57:49;;;;;;;;;16.00;15.00;;;;;7.37;47.25;102384.78;5037708;28;45568;-69
2023/01/29 16:00:22;;;;;;;;;19.00;16.00;;;;;7.38;47.75;102390.06;5036382;28;45363;-69
2023/01/29 16:02:48;;;;;;;;;18.00;15.50;;;;;7.27;47.33;102357.44;5038247;28;45552;-70
2023/01/29 16:05:17;;;;;;;;;15.00;15.00;;;;;7.36;47.64;102376.06;5039683;28;45350;-70
2023/01/29 16:07:44;;;;;;;;;18.00;18.00;;;;;7.34;47.76;102374.25;5037993;28;45479;-68
2023/01/29 16:10:27;;;;;;;;;17.00;17.00;;;;;7.37;47.39;102376.97;5038548;28;45435;-69
2023/01/29 16:12:54;;;;;;;;;16.25;16.25;;;;;7.38;48.18;102378.72;5034628;28;47060;-70
2023/01/29 16:15:30;;;;;;;;;19.50;17.00;;;;;7.36;47.75;102375.19;5037105;28;45566;-69
2023/01/29 16:18:02;;;;;;;;;22.00;19.25;;;;;7.35;47.95;102381.22;5037223;28;45484;-69
2023/01/29 16:20:42;;;;;;;;;23.75;19.00;;;;;7.34;47.85;102369.03;5034033;28;45455;-69
2023/01/29 16:23:23;;;;;;;;;18.25;18.00;;;;;7.28;47.46;102377.47;5056057;28;46751;-71
2023/01/29 16:25:50;;;;;;;;;27.00;25.75;;;;;7.35;47.50;102384.72;5036349;28;45676;-70
2023/01/29 16:28:16;;;;;;;;;26.50;23.25;;;;;7.20;48.08;102365.84;5035194;28;45614;-70
2023/01/29 16:30:42;;;;;;;;;23.75;22.75;;;;;7.16;47.75;102370.00;5054411;28;45345;-70
2023/01/29 16:33:13;;;;;;;;;24.00;23.75;;;;;7.24;48.16;102375.56;5034218;28;45815;-70
2023/01/29 16:35:40;;;;;;;;;29.00;27.00;;;;;7.13;48.08;102374.22;5050014;28;45443;-69
2023/01/29 16:38:23;;;;;;;;;25.00;23.00;;;;;7.10;48.46;102393.22;5035117;28;45537;-72
2023/01/29 16:41:14;;;;;;;;;26.25;24.50;;;;;7.03;48.31;102383.38;5024383;28;45475;-71
2023/01/29 16:43:42;;;;;;;;;25.00;24.25;;;;;7.02;48.83;102389.38;5034163;28;46622;-70
2023/01/29 16:46:23;;;;;;;;;31.00;26.75;;;;;6.92;48.66;102379.41;5034957;28;45466;-70
2023/01/29 16:48:49;;;;;;;;;23.25;21.00;;;;;6.94;48.64;102394.28;5050059;28;45469;-72
2023/01/29 16:51:28;;;;;;;;;26.50;23.00;;;;;6.99;49.33;102399.69;5035524;28;45395;-70
2023/01/29 16:54:17;;;;;;;;;25.25;23.25;;;;;7.03;48.82;102399.00;5034651;28;45635;-70
2023/01/29 16:56:45;;;;;;;;;28.00;24.75;;;;;7.07;49.20;102397.41;5034756;28;45304;-71
2023/01/29 16:59:31;;;;;;;;;25.50;21.75;;;;;7.06;49.01;102393.91;5034731;28;45453;-71
2023/01/29 17:01:57;;;;;;;;;26.50;24.50;;;;;7.09;48.93;102404.47;5051375;28;45977;-69
2023/01/29 17:04:23;;;;;;;;;25.25;23.75;;;;;7.01;48.62;102396.31;5033927;28;46452;-71
2023/01/29 17:06:57;;;;;;;;;23.75;22.50;;;;;7.07;48.98;102403.53;5038786;28;45524;-70
2023/01/29 17:09:26;;;;;;;;;28.50;21.50;;;;;7.10;49.19;102414.06;5039000;28;45569;-69
2023/01/29 17:12:00;;;;;;;;;27.25;25.75;;;;;7.03;49.51;102406.81;5033772;28;45466;-68
2023/01/29 17:14:30;;;;;;;;;25.00;24.75;;;;;7.08;49.34;102420.94;5034020;28;45557;-69
2023/01/29 17:17:07;;;;;;;;;30.00;25.00;;;;;7.04;49.01;102415.53;5035261;28;45357;-73
2023/01/29 17:19:32;;;;;;;;;23.75;23.50;;;;;7.01;49.54;102409.34;5036097;28;45537;-70
2023/01/29 17:21:58;;;;;;;;;21.50;20.50;;;;;7.03;49.36;102417.25;5046909;28;45368;-69
2023/01/29 17:24:25;;;;;;;;;25.75;22.00;;;;;7.09;49.89;102425.28;5033336;28;45485;-70
2023/01/29 17:26:51;;;;;;;;;28.25;24.00;;;;;7.03;49.85;102414.63;5024975;28;45684;-70
2023/01/29 17:29:19;;;;;;;;;27.75;21.75;;;;;7.05;49.46;102430.31;5043726;28;45418;-69
2023/01/29 17:31:45;;;;;;;;;27.25;21.00;;;;;7.05;49.39;102426.00;5029906;28;45459;-70
2023/01/29 17:34:13;;;;;;;;;28.75;24.00;;;;;7.08;49.49;102422.66;5032838;28;46901;-71
2023/01/29 17:36:40;;;;;;;;;23.25;22.25;;;;;7.03;49.79;102422.44;5034492;28;45357;-70
2023/01/29 17:39:22;;;;;;;;;31.00;30.00;;;;;7.08;49.34;102425.25;5029542;28;45308;-72
2023/01/29 17:41:56;;;;;;;;;25.50;24.00;;;;;7.03;49.69;102422.44;5022861;28;45587;-70
2023/01/29 17:44:24;;;;;;;;;26.50;25.50;;;;;7.12;49.73;102434.97;5021693;28;45506;-71
2023/01/29 17:46:50;;;;;;;;;27.25;26.75;;;;;7.14;49.64;102431.63;5034826;28;45998;-69
2023/01/29 17:49:26;;;;;;;;;35.00;30.00;;;;;7.13;49.92;102422.00;5066287;28;45638;-69
2023/01/29 17:51:53;;;;;;;;;29.75;28.50;;;;;7.13;49.67;102427.22;5036765;28;45414;-68
2023/01/29 17:54:20;;;;;;;;;32.75;28.00;;;;;7.12;49.74;102419.31;5033227;28;45710;-70
2023/01/29 17:56:46;;;;;;;;;36.50;30.00;;;;;7.08;49.90;102423.53;5034188;28;45481;-69
2023/01/29 17:59:17;;;;;;;;;31.50;27.50;;;;;7.12;50.19;102421.94;5017948;28;45603;-70
2023/01/29 18:01:43;;;;;;;;;31.75;27.75;;;;;7.09;49.79;102419.22;5028530;28;45585;-70
2023/01/29 18:04:10;;;;;;;;;34.00;30.00;;;;;7.12;50.30;102429.75;5033169;28;45805;-69
2023/01/29 18:06:36;;;;;;;;;35.50;32.00;;;;;7.03;50.25;102417.25;5048921;28;45755;-71
2023/01/29 18:09:02;;;;;;;;;40.50;32.75;;;;;7.07;50.05;102416.56;5033536;28;45536;-69
2023/01/29 18:11:28;;;;;;;;;38.75;33.75;;;;;7.06;50.50;102426.91;5033771;28;45441;-70
2023/01/29 18:13:54;;;;;;;;;39.75;32.75;;;;;7.05;50.20;102426.00;5033774;28;45543;-70
2023/01/29 18:16:22;;;;;;;;;40.50;33.00;;;;;6.98;50.57;102411.81;5033356;28;45683;-70
2023/01/29 18:18:50;;;;;;;;;37.50;33.75;;;;;6.85;50.65;102412.09;5033346;28;45471;-69
2023/01/29 18:21:17;;;;;;;;;36.25;30.00;;;;;6.80;50.79;102404.09;5039919;28;45547;-70
2023/01/29 18:23:42;;;;;;;;;42.00;35.75;;;;;6.77;51.02;102411.78;5026823;28;45680;-69
2023/01/29 18:26:12;;;;;;;;;40.75;32.00;;;;;6.78;51.05;102408.31;5033015;28;45455;-69
2023/01/29 18:28:38;;;;;;;;;42.75;35.00;;;;;6.65;51.11;102376.50;5033099;28;45534;-69
2023/01/29 18:31:04;;;;;;;;;35.25;31.25;;;;;6.79;51.31;102397.09;5023857;28;45529;-70
2023/01/29 18:33:30;;;;;;;;;39.50;33.25;;;;;6.78;51.68;102387.50;5014004;28;47413;-69
2023/01/29 18:35:57;;;;;;;;;35.00;30.50;;;;;6.86;51.52;102400.88;5018765;28;45901;-69
2023/01/29 18:38:23;;;;;;;;;35.75;30.75;;;;;6.83;51.72;102402.44;5032931;28;45434;-69
2023/01/29 18:40:49;;;;;;;;;37.25;33.25;;;;;6.79;52.49;102402.31;5022900;28;46469;-69
2023/01/29 18:43:15;;;;;;;;;34.25;29.75;;;;;6.75;52.32;102387.38;5021633;28;45565;-69
2023/01/29 18:45:41;;;;;;;;;31.75;28.75;;;;;6.76;51.93;102373.53;5019825;28;45485;-69
2023/01/29 18:48:06;;;;;;;;;31.75;29.25;;;;;6.77;52.31;102385.72;5021943;28;45459;-69
2023/01/29 18:50:36;;;;;;;;;28.75;25.00;;;;;6.82;52.10;102382.44;5021650;28;45532;-70
2023/01/29 18:53:03;;;;;;;;;27.25;25.25;;;;;6.89;52.53;102394.91;5017297;28;45589;-69
2023/01/29 18:55:28;;;;;;;;;30.25;25.00;;;;;6.86;52.20;102386.94;5019207;28;46098;-71
2023/01/29 18:57:54;;;;;;;;;25.25;21.00;;;;;6.96;52.31;102394.34;5033997;28;45521;-69
2023/01/29 19:00:21;;;;;;;;;24.25;21.50;;;;;6.98;52.03;102393.59;5032437;28;46170;-69
2023/01/29 19:02:46;;;;;;;;;26.50;26.25;;;;;7.00;52.46;102393.66;5033145;28;48217;-70
2023/01/29 19:05:12;;;;;;;;;32.25;31.00;;;;;6.93;51.99;102389.91;5033902;28;45659;-69
2023/01/29 19:07:37;;;;;;;;;31.50;27.50;;;;;6.89;52.88;102387.09;5031707;28;46168;-69
2023/01/29 19:10:08;;;;;;;;;29.25;27.25;;;;;6.89;52.88;102384.50;5037103;28;45346;-70
2023/01/29 19:12:34;;;;;;;;;32.50;28.25;;;;;6.89;52.31;102384.50;5033105;28;46268;-71
2023/01/29 19:15:00;;;;;;;;;36.25;32.00;;;;;6.94;52.50;102401.19;5031481;28;45624;-69
2023/01/29 19:17:26;;;;;;;;;34.25;30.25;;;;;6.94;53.00;102393.38;5031372;28;45458;-70
2023/01/29 19:19:51;;;;;;;;;36.00;30.25;;;;;6.90;52.87;102379.31;5032178;28;45500;-68
2023/01/29 19:22:17;;;;;;;;;43.75;33.00;;;;;6.99;52.89;102384.94;5033649;28;47817;-69
2023/01/29 19:24:43;;;;;;;;;39.00;33.50;;;;;6.92;53.11;102372.47;5035635;28;45445;-70
2023/01/29 19:27:08;;;;;;;;;39.50;34.00;;;;;6.92;52.71;102371.59;5034658;28;45524;-70
2023/01/29 19:29:34;;;;;;;;;39.25;35.25;;;;;6.83;52.72;102350.34;5035527;28;45726;-70
2023/01/29 19:32:00;;;;;;;;;37.75;31.50;;;;;6.94;52.94;102376.03;5042489;28;45763;-70
2023/01/29 19:34:26;;;;;;;;;36.25;32.75;;;;;6.82;52.67;102352.06;5037795;28;45500;-69
2023/01/29 19:36:52;;;;;;;;;41.75;35.00;;;;;6.91;53.28;102369.81;5035967;28;45438;-70
2023/01/29 19:39:18;;;;;;;;;30.75;30.00;;;;;6.86;53.64;102368.69;5022324;28;45491;-70
2023/01/29 19:41:43;;;;;;;;;41.50;32.00;;;;;6.70;53.06;102333.31;5032734;28;45392;-69
2023/01/29 19:44:10;;;;;;;;;39.25;33.50;;;;;6.84;53.68;102355.63;5039580;28;45501;-70
2023/01/29 19:46:36;;;;;;;;;40.50;34.75;;;;;6.86;53.53;102350.47;5036030;28;45402;-70
2023/01/29 19:49:02;;;;;;;;;37.00;32.00;;;;;6.84;53.92;102350.44;5022287;28;45461;-69
2023/01/29 19:51:28;;;;;;;;;36.00;30.25;;;;;6.83;53.33;102348.63;5019665;28;45473;-70
2023/01/29 19:53:53;;;;;;;;;39.00;32.50;;;;;6.86;53.50;102351.38;5031416;28;45606;-70
2023/01/29 19:56:19;;;;;;;;;32.75;31.00;;;;;6.76;53.45;102334.47;5035083;28;45511;-71
2023/01/29 19:58:46;;;;;;;;;39.75;33.75;;;;;6.71;54.07;102345.50;5051231;28;46067;-70
2023/01/29 20:01:18;;;;;;;;;37.25;33.50;;;;;6.61;54.28;102341.59;5035675;28;46092;-70
2023/01/29 20:03:45;;;;;;;;;44.25;37.00;;;;;6.61;54.29;102352.03;5050891;28;45565;-71
2023/01/29 20:06:12;;;;;;;;;42.25;34.75;;;;;6.60;54.08;102350.25;5037588;28;45519;-70